Time;durP1;ratioP1;P1;durP2;ratioP2;P2;SDS_P1;SDS_P2;PMS_P1;PMS_P2;Temp;Humidity;BMP_temperature;BMP_pressure;BME280_temperature;BME280_humidity;BME280_pressure;Samples;Min_cycle;Max_cycle;Signal;HPM_P1;HPM_P2
2022/10/01 00:00:59;;;;;;;6.55;2.92;;;8.50;99.90;;;;;;5053781;28;20170;-67
2022/10/01 00:03:25;;;;;;;5.47;2.75;;;8.60;99.90;;;;;;5053653;28;20110;-68
2022/10/01 00:06:03;;;;;;;9.80;4.47;;;8.50;99.90;;;;;;5053569;28;20029;-71
2022/10/01 00:08:30;;;;;;;3.50;1.83;;;8.30;99.90;;;;;;5053669;28;20052;-67
2022/10/01 00:10:56;;;;;;;2.15;1.00;;;8.30;99.90;;;;;;5053547;28;20036;-68
2022/10/01 00:13:22;;;;;;;2.50;1.20;;;8.40;99.90;;;;;;5052982;28;20163;-67
2022/10/01 00:15:48;;;;;;;2.85;1.25;;;8.40;99.90;;;;;;5053584;28;20119;-68
2022/10/01 00:18:14;;;;;;;0.73;0.60;;;8.40;99.90;;;;;;5050793;28;20440;-68
2022/10/01 00:20:42;;;;;;;2.58;1.20;;;8.50;99.90;;;;;;5052183;28;20503;-67
2022/10/01 00:23:12;;;;;;;1.83;1.15;;;8.60;99.90;;;;;;5052095;28;20091;-67
2022/10/01 00:25:39;;;;;;;1.85;1.17;;;8.60;99.90;;;;;;5053409;28;20584;-67
2022/10/01 00:28:06;;;;;;;4.95;1.85;;;8.60;99.90;;;;;;5052023;28;20443;-68
2022/10/01 00:30:31;;;;;;;5.00;1.75;;;8.60;99.90;;;;;;5052107;28;20407;-72
2022/10/01 00:32:57;;;;;;;2.20;1.30;;;8.60;99.90;;;;;;5053449;28;20127;-67
2022/10/01 00:35:23;;;;;;;1.30;0.88;;;8.50;99.90;;;;;;5053254;28;20029;-68
2022/10/01 00:37:51;;;;;;;18.02;4.13;;;8.40;99.90;;;;;;5053075;28;20045;-68
2022/10/01 00:40:21;;;;;;;5.63;1.65;;;8.40;99.90;;;;;;5053281;28;20509;-67
2022/10/01 00:42:47;;;;;;;2.05;0.95;;;8.40;99.90;;;;;;5053314;28;20049;-67
2022/10/01 00:45:15;;;;;;;3.42;0.90;;;8.40;99.90;;;;;;5053808;28;20036;-72
2022/10/01 00:47:53;;;;;;;0.95;0.82;;;8.30;99.90;;;;;;5056717;28;20509;-71
2022/10/01 00:50:27;;;;;;;1.70;1.00;;;8.30;99.90;;;;;;5056781;28;20021;-72
2022/10/01 00:52:58;;;;;;;4.88;1.20;;;8.20;99.90;;;;;;5056777;28;20033;-69
2022/10/01 00:55:39;;;;;;;2.88;1.52;;;8.10;99.90;;;;;;5056894;28;20393;-68
2022/10/01 00:58:07;;;;;;;1.40;0.88;;;8.00;99.90;;;;;;5056283;28;20044;-70
2022/10/01 01:00:34;;;;;;;3.65;1.40;;;8.10;99.90;;;;;;5056769;28;20028;-67
2022/10/01 01:02:59;;;;;;;2.78;1.40;;;8.00;99.90;;;;;;5056744;28;20045;-67
2022/10/01 01:05:25;;;;;;;3.38;1.85;;;8.00;99.90;;;;;;5056590;28;20388;-68
2022/10/01 01:07:52;;;;;;;5.32;1.55;;;8.00;99.90;;;;;;5056467;28;20037;-68
2022/10/01 01:10:29;;;;;;;1.65;1.02;;;7.90;99.90;;;;;;5071938;28;20043;-68
2022/10/01 01:13:07;;;;;;;2.63;1.10;;;7.90;99.90;;;;;;5056505;28;20041;-67
2022/10/01 01:15:33;;;;;;;1.63;1.00;;;7.90;99.90;;;;;;5053000;28;20126;-69
2022/10/01 01:18:01;;;;;;;3.95;1.20;;;8.00;99.90;;;;;;5040789;28;20516;-68
2022/10/01 01:20:49;;;;;;;1.45;0.90;;;8.20;99.90;;;;;;5034336;28;20033;-68
2022/10/01 01:23:15;;;;;;;1.83;1.15;;;8.20;99.90;;;;;;5036455;28;20433;-68
2022/10/01 01:25:46;;;;;;;3.53;1.27;;;8.20;99.90;;;;;;5036415;28;20056;-68
2022/10/01 01:28:30;;;;;;;2.30;1.05;;;8.30;99.90;;;;;;5034974;28;20489;-71
2022/10/01 01:31:00;;;;;;;2.25;1.27;;;8.30;99.90;;;;;;5036102;28;20112;-72
2022/10/01 01:33:29;;;;;;;1.67;1.13;;;8.30;99.90;;;;;;5035955;28;20092;-68
2022/10/01 01:36:00;;;;;;;1.60;1.17;;;8.40;99.90;;;;;;5036291;28;20041;-72
2022/10/01 01:38:32;;;;;;;4.35;1.50;;;8.50;99.90;;;;;;5036176;28;20107;-68
2022/10/01 01:41:00;;;;;;;2.38;1.25;;;8.50;99.90;;;;;;5036205;28;20051;-68
2022/10/01 01:43:32;;;;;;;2.42;1.20;;;8.50;99.90;;;;;;5035874;28;20037;-68
2022/10/01 01:46:00;;;;;;;5.72;2.15;;;8.50;99.90;;;;;;5035872;28;20045;-68
2022/10/01 01:48:28;;;;;;;10.07;4.25;;;8.70;99.90;;;;;;5035861;28;20037;-68
2022/10/01 01:51:03;;;;;;;5.95;2.85;;;8.70;99.90;;;;;;5035774;28;20022;-72
2022/10/01 01:53:31;;;;;;;9.80;3.17;;;8.80;99.90;;;;;;5035526;28;20037;-68
2022/10/01 01:55:59;;;;;;;7.30;3.40;;;8.80;99.90;;;;;;5035342;28;20125;-68
2022/10/01 01:58:26;;;;;;;4.22;1.30;;;8.80;99.90;;;;;;5035717;28;20493;-68
2022/10/01 02:00:52;;;;;;;2.17;1.10;;;8.80;99.90;;;;;;5035740;28;20038;-68
2022/10/01 02:03:25;;;;;;;3.10;1.20;;;8.80;99.90;;;;;;5035801;28;20045;-68
2022/10/01 02:06:12;;;;;;;2.25;0.88;;;8.80;99.90;;;;;;5035635;28;20048;-68
2022/10/01 02:08:50;;;;;;;3.13;1.00;;;8.90;99.90;;;;;;5044424;28;20044;-72
2022/10/01 02:11:27;;;;;;;1.67;0.90;;;8.90;99.90;;;;;;5075476;28;20174;-71
2022/10/01 02:14:02;;;;;;;1.83;1.13;;;8.90;99.90;;;;;;5075394;28;20141;-68
2022/10/01 02:16:46;;;;;;;1.60;0.98;;;9.00;99.90;;;;;;5075355;28;20064;-68
2022/10/01 02:19:21;;;;;;;4.53;1.25;;;8.90;99.90;;;;;;5075223;28;20571;-71
2022/10/01 02:21:54;;;;;;;11.23;3.50;;;8.90;99.90;;;;;;5075008;28;20123;-72
2022/10/01 02:24:44;;;;;;;12.02;4.43;;;9.00;99.90;;;;;;5075000;28;20100;-68
2022/10/01 02:27:39;;;;;;;8.80;3.42;;;9.10;99.90;;;;;;5074938;28;20392;-71
2022/10/01 02:30:08;;;;;;;10.70;3.90;;;9.10;99.90;;;;;;5074928;28;20033;-68
2022/10/01 02:32:37;;;;;;;8.20;3.05;;;9.00;99.90;;;;;;5074999;28;20040;-71
2022/10/01 02:35:06;;;;;;;2.88;1.50;;;9.00;99.90;;;;;;5074795;28;20055;-71
2022/10/01 02:37:34;;;;;;;11.85;3.70;;;8.90;99.90;;;;;;5074317;28;20477;-71
2022/10/01 02:40:02;;;;;;;2.50;1.52;;;8.90;99.90;;;;;;5074710;28;20025;-67
2022/10/01 02:42:29;;;;;;;4.32;1.20;;;8.90;99.90;;;;;;5074639;28;20047;-68
2022/10/01 02:45:01;;;;;;;5.35;1.73;;;8.90;99.90;;;;;;5074619;28;20479;-68
2022/10/01 02:47:34;;;;;;;5.15;2.22;;;8.90;99.90;;;;;;5074541;28;20097;-68
2022/10/01 02:50:02;;;;;;;1.63;1.10;;;8.90;99.90;;;;;;5074613;28;20101;-71
2022/10/01 02:52:39;;;;;;;2.00;1.27;;;9.00;99.90;;;;;;5073391;28;20036;-68
2022/10/01 02:55:09;;;;;;;26.20;7.70;;;9.00;99.90;;;;;;5074632;28;20044;-71
2022/10/01 02:57:35;;;;;;;10.27;3.78;;;9.00;99.90;;;;;;5074403;28;20064;-68
2022/10/01 03:00:06;;;;;;;2.78;1.50;;;9.00;99.90;;;;;;5074446;28;20119;-71
2022/10/01 03:02:32;;;;;;;3.30;1.77;;;8.90;99.90;;;;;;5074073;28;20044;-68
2022/10/01 03:04:58;;;;;;;4.88;1.73;;;8.80;99.90;;;;;;5074229;28;20039;-68
2022/10/01 03:07:26;;;;;;;3.55;1.40;;;8.90;99.90;;;;;;5073102;28;20055;-69
2022/10/01 03:09:52;;;;;;;12.98;3.60;;;8.80;99.90;;;;;;5074114;28;20035;-68
2022/10/01 03:12:19;;;;;;;2.60;1.60;;;8.80;99.90;;;;;;5074402;28;20040;-72
2022/10/01 03:14:46;;;;;;;2.03;1.50;;;8.80;99.90;;;;;;5058669;28;20116;-68
2022/10/01 03:17:13;;;;;;;2.78;1.50;;;8.90;99.90;;;;;;5052813;28;20048;-71
2022/10/01 03:19:39;;;;;;;2.53;1.50;;;8.90;99.90;;;;;;5052813;28;20497;-69
2022/10/01 03:22:05;;;;;;;2.65;1.45;;;8.90;99.90;;;;;;5054096;28;20043;-68
2022/10/01 03:24:31;;;;;;;10.02;3.85;;;9.00;99.90;;;;;;5054043;28;20471;-71
2022/10/01 03:26:57;;;;;;;5.75;2.45;;;9.00;99.90;;;;;;5053925;28;20123;-68
2022/10/01 03:29:24;;;;;;;1.70;1.27;;;9.00;99.90;;;;;;5053919;28;20090;-72
2022/10/01 03:31:50;;;;;;;2.85;1.13;;;9.00;99.90;;;;;;5053975;28;20465;-68
2022/10/01 03:34:16;;;;;;;3.38;1.77;;;9.00;99.90;;;;;;5053911;28;20040;-68
2022/10/01 03:36:45;;;;;;;3.13;1.83;;;9.00;99.90;;;;;;5053887;28;20056;-70
2022/10/01 03:39:13;;;;;;;3.17;1.83;;;9.00;99.90;;;;;;5053682;28;20067;-71
2022/10/01 03:41:39;;;;;;;2.60;1.65;;;9.10;99.90;;;;;;5053764;28;20112;-68
2022/10/01 03:44:04;;;;;;;2.05;1.45;;;9.10;99.90;;;;;;5053714;28;20044;-72
2022/10/01 03:46:30;;;;;;;5.13;1.85;;;9.10;99.90;;;;;;5052332;28;20144;-71
2022/10/01 03:48:59;;;;;;;1.65;1.10;;;9.20;99.90;;;;;;5052417;28;20041;-72
2022/10/01 03:51:27;;;;;;;3.97;1.33;;;9.20;99.90;;;;;;5053742;28;20037;-68
2022/10/01 03:53:53;;;;;;;2.33;1.35;;;9.10;99.90;;;;;;5053782;28;20076;-72
2022/10/01 03:56:19;;;;;;;1.17;1.08;;;9.20;99.90;;;;;;5053775;28;20071;-68
2022/10/01 03:58:45;;;;;;;1.40;1.20;;;9.20;99.90;;;;;;5053540;28;20489;-68
2022/10/01 04:01:11;;;;;;;2.88;1.65;;;9.20;99.90;;;;;;5053654;28;20048;-68
2022/10/01 04:03:36;;;;;;;5.28;1.98;;;9.10;99.90;;;;;;5053698;28;20033;-70
2022/10/01 04:06:02;;;;;;;1.98;1.38;;;9.20;99.90;;;;;;5053603;28;20082;-68
2022/10/01 04:08:28;;;;;;;2.35;1.20;;;9.20;99.90;;;;;;5053812;28;20090;-67
2022/10/01 04:10:54;;;;;;;5.60;1.48;;;9.20;99.90;;;;;;5053601;28;20033;-68
2022/10/01 04:13:19;;;;;;;3.38;1.83;;;9.20;99.90;;;;;;5052301;28;20048;-68
2022/10/01 04:15:47;;;;;;;2.50;1.23;;;9.20;99.90;;;;;;5053327;28;20036;-69
2022/10/01 04:18:13;;;;;;;2.30;1.70;;;9.30;99.90;;;;;;5053117;28;20056;-68
2022/10/01 04:20:38;;;;;;;3.55;1.70;;;9.30;99.90;;;;;;5056519;28;20037;-68
2022/10/01 04:23:04;;;;;;;2.58;1.38;;;9.30;99.90;;;;;;5057465;28;20040;-68
2022/10/01 04:25:30;;;;;;;2.25;1.15;;;9.20;99.90;;;;;;5057383;28;20063;-68
2022/10/01 04:28:02;;;;;;;2.00;1.42;;;9.20;99.90;;;;;;5057325;28;20048;-68
2022/10/01 04:30:36;;;;;;;2.40;1.15;;;9.20;99.90;;;;;;5057447;28;20068;-67
2022/10/01 04:33:03;;;;;;;2.67;1.63;;;9.20;99.90;;;;;;5057288;28;20041;-69
2022/10/01 04:35:29;;;;;;;3.08;1.83;;;9.10;99.90;;;;;;5057219;28;20044;-67
2022/10/01 04:37:57;;;;;;;2.05;1.50;;;9.10;99.90;;;;;;5057014;28;20129;-68
2022/10/01 04:40:23;;;;;;;3.67;1.50;;;9.20;99.90;;;;;;5057165;28;20045;-67
2022/10/01 04:42:48;;;;;;;4.63;1.52;;;9.10;99.90;;;;;;5056967;28;20043;-68
2022/10/01 04:45:14;;;;;;;1.98;1.52;;;9.10;99.90;;;;;;5056388;28;20102;-67
2022/10/01 04:47:48;;;;;;;4.75;1.10;;;9.10;99.90;;;;;;5056697;28;20496;-67
2022/10/01 04:50:15;;;;;;;2.75;1.58;;;9.00;99.90;;;;;;5055446;28;20433;-68
2022/10/01 04:52:41;;;;;;;1.83;1.50;;;9.00;99.90;;;;;;5056667;28;20052;-68
2022/10/01 04:55:07;;;;;;;2.95;1.50;;;9.00;99.90;;;;;;5056561;28;20033;-67
2022/10/01 04:57:34;;;;;;;1.70;1.38;;;9.00;99.90;;;;;;5056550;28;20104;-67
2022/10/01 05:00:00;;;;;;;2.72;1.42;;;8.90;99.90;;;;;;5056620;28;20543;-67
2022/10/01 05:02:28;;;;;;;2.92;1.40;;;8.90;99.90;;;;;;5056522;28;20086;-68
2022/10/01 05:04:54;;;;;;;4.95;1.30;;;8.90;99.90;;;;;;5056743;28;20037;-68
2022/10/01 05:07:21;;;;;;;2.97;1.48;;;9.00;99.90;;;;;;5056685;28;20045;-67
2022/10/01 05:09:47;;;;;;;2.63;1.20;;;8.90;99.90;;;;;;5056482;28;20033;-67
2022/10/01 05:12:13;;;;;;;2.22;1.33;;;9.00;99.90;;;;;;5056477;28;20048;-69
2022/10/01 05:14:39;;;;;;;1.88;1.30;;;9.00;99.90;;;;;;5056542;28;20514;-67
2022/10/01 05:17:06;;;;;;;2.40;1.40;;;9.00;99.90;;;;;;5056139;28;20410;-69
2022/10/01 05:19:32;;;;;;;2.47;1.23;;;9.00;99.90;;;;;;5056033;28;20077;-69
2022/10/01 05:21:58;;;;;;;1.92;1.50;;;9.00;99.90;;;;;;5048673;28;20091;-68
2022/10/01 05:24:24;;;;;;;2.65;1.45;;;9.00;99.90;;;;;;5033233;28;20045;-68
2022/10/01 05:26:52;;;;;;;2.00;1.50;;;8.90;99.90;;;;;;5036076;28;20056;-70
2022/10/01 05:29:19;;;;;;;4.18;2.30;;;8.90;99.90;;;;;;5035973;28;20037;-68
2022/10/01 05:31:45;;;;;;;4.47;1.75;;;9.00;99.90;;;;;;5034542;28;20030;-68
2022/10/01 05:34:13;;;;;;;3.33;1.90;;;8.90;99.90;;;;;;5035357;28;20056;-69
2022/10/01 05:36:38;;;;;;;2.42;1.60;;;8.90;99.90;;;;;;5034788;28;20156;-67
2022/10/01 05:39:04;;;;;;;3.47;1.70;;;8.90;99.90;;;;;;5034954;28;20515;-68
2022/10/01 05:41:30;;;;;;;6.25;3.75;;;8.90;99.90;;;;;;5036105;28;20074;-68
2022/10/01 05:43:55;;;;;;;4.22;2.75;;;8.90;99.90;;;;;;5035958;28;20033;-67
2022/10/01 05:46:21;;;;;;;20.70;8.88;;;8.90;99.90;;;;;;5034545;28;20052;-67
2022/10/01 05:48:49;;;;;;;20.92;9.10;;;8.90;99.90;;;;;;5035931;28;20072;-68
2022/10/01 05:51:15;;;;;;;40.03;18.52;;;9.00;99.90;;;;;;5035836;28;20053;-70
2022/10/01 05:53:40;;;;;;;8.65;4.60;;;9.00;99.90;;;;;;5034469;28;20168;-69
2022/10/01 05:56:07;;;;;;;3.28;2.22;;;9.00;99.90;;;;;;5035809;28;20045;-68
2022/10/01 05:58:33;;;;;;;15.52;6.90;;;9.00;99.90;;;;;;5035493;28;20056;-70
2022/10/01 06:00:59;;;;;;;8.57;3.22;;;8.90;99.90;;;;;;5035544;28;20044;-68
2022/10/01 06:03:27;;;;;;;4.25;2.20;;;8.90;99.90;;;;;;5035325;28;20045;-68
2022/10/01 06:05:53;;;;;;;5.00;2.97;;;8.90;99.90;;;;;;5035443;28;20052;-68
2022/10/01 06:08:20;;;;;;;4.15;2.50;;;9.00;99.90;;;;;;5035493;28;20124;-68
2022/10/01 06:10:46;;;;;;;3.58;1.80;;;9.00;99.90;;;;;;5034127;28;20041;-67
2022/10/01 06:13:18;;;;;;;2.60;2.08;;;9.10;99.90;;;;;;5034048;28;20033;-70
2022/10/01 06:15:45;;;;;;;6.07;2.28;;;9.10;99.90;;;;;;5035233;28;20046;-70
2022/10/01 06:18:12;;;;;;;2.13;1.70;;;9.10;99.90;;;;;;5035411;28;20048;-69
2022/10/01 06:20:39;;;;;;;2.53;1.65;;;9.00;99.90;;;;;;5034928;28;20061;-68
2022/10/01 06:23:10;;;;;;;4.00;1.95;;;9.00;99.90;;;;;;5034921;28;20042;-69
2022/10/01 06:25:37;;;;;;;3.50;2.13;;;9.10;99.90;;;;;;5034816;28;20033;-68
2022/10/01 06:28:04;;;;;;;3.85;1.73;;;9.20;99.90;;;;;;5034824;28;20363;-68
2022/10/01 06:30:31;;;;;;;2.30;1.60;;;9.20;99.90;;;;;;5034636;28;20081;-67
2022/10/01 06:33:11;;;;;;;2.60;1.42;;;9.10;99.90;;;;;;5034649;28;20489;-68
2022/10/01 06:35:43;;;;;;;5.88;2.58;;;9.10;99.90;;;;;;5034735;28;20044;-69
2022/10/01 06:38:09;;;;;;;4.97;2.40;;;9.20;99.90;;;;;;5033327;28;20081;-68
2022/10/01 06:40:36;;;;;;;2.95;1.60;;;9.20;99.90;;;;;;5034682;28;20095;-69
2022/10/01 06:43:02;;;;;;;5.47;3.45;;;9.20;99.90;;;;;;5032505;28;20061;-67
2022/10/01 06:45:29;;;;;;;4.05;2.45;;;9.30;99.90;;;;;;5034431;28;20072;-67
2022/10/01 06:47:57;;;;;;;6.13;1.73;;;9.30;99.90;;;;;;5034547;28;20037;-69
2022/10/01 06:50:23;;;;;;;6.07;2.35;;;9.30;99.90;;;;;;5034454;28;20041;-68
2022/10/01 06:52:50;;;;;;;4.13;3.05;;;9.30;99.90;;;;;;5034167;28;20065;-69
2022/10/01 06:55:21;;;;;;;6.10;3.60;;;9.40;99.90;;;;;;5034599;28;20033;-68
2022/10/01 06:57:52;;;;;;;6.18;4.32;;;9.30;99.90;;;;;;5034387;28;20076;-69
2022/10/01 07:00:18;;;;;;;4.05;2.50;;;9.30;99.90;;;;;;5037338;28;20083;-68
2022/10/01 07:02:43;;;;;;;3.78;2.63;;;9.10;99.90;;;;;;5054444;28;20585;-69
2022/10/01 07:05:09;;;;;;;6.00;3.88;;;9.20;99.90;;;;;;5050343;28;20112;-68
2022/10/01 07:07:37;;;;;;;3.67;2.47;;;9.10;99.90;;;;;;5040749;28;20067;-69
2022/10/01 07:10:05;;;;;;;4.75;3.05;;;9.00;99.90;;;;;;5051538;28;20457;-68
2022/10/01 07:12:33;;;;;;;3.05;2.28;;;9.10;99.90;;;;;;5049542;28;20045;-68
2022/10/01 07:14:59;;;;;;;4.43;1.95;;;9.10;99.90;;;;;;5052558;28;20048;-68
2022/10/01 07:17:25;;;;;;;5.50;3.65;;;9.10;99.90;;;;;;5051965;28;20036;-68
2022/10/01 07:19:51;;;;;;;3.78;2.75;;;9.10;99.90;;;;;;5050266;28;20055;-68
2022/10/01 07:22:18;;;;;;;2.97;2.00;;;9.10;99.90;;;;;;5052179;28;20554;-68
2022/10/01 07:24:44;;;;;;;3.95;2.45;;;9.10;99.90;;;;;;5052330;28;20396;-68
2022/10/01 07:27:11;;;;;;;4.05;2.60;;;9.10;99.90;;;;;;5052015;28;20120;-68
2022/10/01 07:29:36;;;;;;;7.53;3.70;;;9.20;99.90;;;;;;5052081;28;20068;-68
2022/10/01 07:32:07;;;;;;;4.28;2.85;;;9.10;99.90;;;;;;5051786;28;20064;-68
2022/10/01 07:34:34;;;;;;;5.10;3.08;;;9.10;99.90;;;;;;5051568;28;20051;-68
2022/10/01 07:37:01;;;;;;;3.50;1.80;;;9.20;99.90;;;;;;5051748;28;20045;-69
2022/10/01 07:39:26;;;;;;;3.33;1.73;;;9.20;99.90;;;;;;5051322;28;20055;-68
2022/10/01 07:41:52;;;;;;;2.85;1.80;;;9.30;99.90;;;;;;5051144;28;20037;-69
2022/10/01 07:44:18;;;;;;;3.58;2.00;;;9.20;99.90;;;;;;5051180;28;20465;-68
2022/10/01 07:46:45;;;;;;;5.63;3.08;;;9.20;99.90;;;;;;5050602;28;20409;-68
2022/10/01 07:49:13;;;;;;;9.60;5.43;;;9.20;99.90;;;;;;5048623;28;20041;-68
2022/10/01 07:51:39;;;;;;;4.68;3.22;;;9.20;99.90;;;;;;5049319;28;20048;-68
2022/10/01 07:54:05;;;;;;;3.30;2.55;;;9.30;99.90;;;;;;5049960;28;20045;-68
2022/10/01 07:56:31;;;;;;;17.27;8.93;;;9.20;99.90;;;;;;5054180;28;20496;-69
2022/10/01 07:58:57;;;;;;;22.30;8.57;;;9.20;99.90;;;;;;5070350;28;20052;-68
2022/10/01 08:01:24;;;;;;;20.40;10.18;;;9.50;99.90;;;;;;5054750;28;20397;-68
2022/10/01 08:03:51;;;;;;;10.85;5.43;;;9.30;99.90;;;;;;5055012;28;20040;-68
2022/10/01 08:06:18;;;;;;;9.07;3.60;;;9.30;99.90;;;;;;5054421;28;20037;-68
2022/10/01 08:08:45;;;;;;;5.32;2.40;;;9.40;99.90;;;;;;5054193;28;20141;-68
2022/10/01 08:11:13;;;;;;;3.47;2.10;;;9.50;99.90;;;;;;5057552;28;20497;-68
2022/10/01 08:13:44;;;;;;;5.68;3.60;;;9.50;99.90;;;;;;5054857;28;20048;-68
2022/10/01 08:16:10;;;;;;;6.13;2.88;;;9.50;99.90;;;;;;5055200;28;20041;-68
2022/10/01 08:18:36;;;;;;;3.58;2.55;;;9.50;99.90;;;;;;5054252;28;20045;-68
2022/10/01 08:21:03;;;;;;;3.15;2.20;;;9.50;99.90;;;;;;5054959;28;20106;-68
2022/10/01 08:23:32;;;;;;;4.88;2.40;;;9.60;99.90;;;;;;5055679;28;20033;-68
2022/10/01 08:26:06;;;;;;;3.92;2.30;;;9.70;99.90;;;;;;5055902;28;20041;-68
2022/10/01 08:28:33;;;;;;;3.35;2.63;;;9.60;99.90;;;;;;5055735;28;20586;-68
2022/10/01 08:31:05;;;;;;;3.35;2.05;;;9.70;99.90;;;;;;5055785;28;20481;-69
2022/10/01 08:33:32;;;;;;;5.35;1.88;;;9.70;99.90;;;;;;5055316;28;20384;-68
2022/10/01 08:36:01;;;;;;;3.38;2.33;;;9.80;99.90;;;;;;5054929;28;20076;-68
2022/10/01 08:38:27;;;;;;;5.47;2.28;;;9.90;99.90;;;;;;5055752;28;20083;-68
2022/10/01 08:40:53;;;;;;;2.92;2.00;;;9.90;99.90;;;;;;5056873;28;20043;-68
2022/10/01 08:43:37;;;;;;;5.30;2.00;;;9.90;99.90;;;;;;5054874;28;20049;-68
2022/10/01 08:46:09;;;;;;;4.70;2.70;;;9.90;99.90;;;;;;5056458;28;20064;-68
2022/10/01 08:48:54;;;;;;;4.45;3.15;;;10.00;99.90;;;;;;5054833;28;20044;-69
2022/10/01 08:51:31;;;;;;;5.07;3.05;;;10.10;99.90;;;;;;5054225;28;20032;-68
2022/10/01 08:54:19;;;;;;;9.38;4.25;;;10.10;99.90;;;;;;5055233;28;20080;-69
2022/10/01 08:56:46;;;;;;;4.25;2.50;;;10.10;99.90;;;;;;5054950;28;20041;-68
2022/10/01 08:59:31;;;;;;;10.40;6.13;;;10.20;99.90;;;;;;5054720;28;20053;-68
2022/10/01 09:01:58;;;;;;;4.55;2.70;;;10.30;99.90;;;;;;5037277;28;20408;-68
2022/10/01 09:04:25;;;;;;;3.95;2.83;;;10.40;99.90;;;;;;5054085;28;20530;-69
2022/10/01 09:07:04;;;;;;;5.63;3.10;;;10.40;99.90;;;;;;5053618;28;20053;-68
2022/10/01 09:09:54;;;;;;;3.22;2.53;;;10.40;99.90;;;;;;5054796;28;20102;-68
2022/10/01 09:12:59;;;;;;;3.20;2.35;;;10.70;99.90;;;;;;5054609;28;20900;-68
2022/10/01 09:15:40;;;;;;;3.55;2.80;;;10.60;99.90;;;;;;5020693;28;20094;-68
2022/10/01 09:18:14;;;;;;;7.13;2.53;;;10.50;99.90;;;;;;5054315;28;20053;-68
2022/10/01 09:20:52;;;;;;;6.82;2.63;;;10.40;99.90;;;;;;5054758;28;20536;-68
2022/10/01 09:23:51;;;;;;;4.75;2.70;;;10.30;99.90;;;;;;5056333;28;20045;-69
2022/10/01 09:26:17;;;;;;;3.20;2.28;;;10.30;99.90;;;;;;5053980;28;20048;-68
2022/10/01 09:28:49;;;;;;;3.65;2.72;;;10.40;99.90;;;;;;5053147;28;20021;-68
2022/10/01 09:31:26;;;;;;;4.32;2.40;;;10.50;99.90;;;;;;5051891;28;20048;-67
2022/10/01 09:34:01;;;;;;;6.18;2.25;;;10.60;99.90;;;;;;5044762;28;20041;-67
2022/10/01 09:36:39;;;;;;;3.97;2.53;;;10.90;99.90;;;;;;5054625;28;20044;-67
2022/10/01 09:39:23;;;;;;;12.88;6.63;;;10.80;99.90;;;;;;5053577;28;20045;-67
2022/10/01 09:41:49;;;;;;;10.52;5.43;;;10.90;99.90;;;;;;5053574;28;20040;-67
2022/10/01 09:44:17;;;;;;;28.42;12.00;;;;;;;;;;5053191;28;20051;-67
2022/10/01 09:46:45;;;;;;;50.22;17.48;;;10.80;99.90;;;;;;5052283;28;20045;-67
2022/10/01 09:49:30;;;;;;;7.80;4.85;;;10.80;99.90;;;;;;5053337;28;20064;-68
2022/10/01 09:52:13;;;;;;;11.40;6.13;;;10.90;99.90;;;;;;5052351;28;20033;-67
2022/10/01 09:54:50;;;;;;;4.50;3.10;;;10.90;99.90;;;;;;5052435;28;20045;-67
2022/10/01 09:57:24;;;;;;;10.88;7.38;;;10.70;99.90;;;;;;5052017;28;20032;-66
2022/10/01 10:00:19;;;;;;;8.65;4.45;;;10.80;99.90;;;;;;5052937;28;20474;-67
2022/10/01 10:02:47;;;;;;;12.90;7.60;;;10.90;99.90;;;;;;5050877;28;20064;-67
2022/10/01 10:05:18;;;;;;;6.57;4.57;;;10.90;99.90;;;;;;5051308;28;20045;-67
2022/10/01 10:08:01;;;;;;;9.07;4.75;;;11.00;99.90;;;;;;5051807;28;20047;-67
2022/10/01 10:10:38;;;;;;;8.68;4.75;;;10.90;99.90;;;;;;5051772;28;20040;-67
2022/10/01 10:13:20;;;;;;;8.00;4.80;;;11.00;99.90;;;;;;5052224;28;20117;-67
2022/10/01 10:15:49;;;;;;;6.18;4.18;;;11.00;99.90;;;;;;5052779;28;20118;-67
2022/10/01 10:18:16;;;;;;;4.57;3.58;;;10.90;99.90;;;;;;5051615;28;20049;-67
2022/10/01 10:20:44;;;;;;;4.95;3.47;;;10.90;99.90;;;;;;5052002;28;20476;-67
2022/10/01 10:23:18;;;;;;;4.50;3.67;;;11.10;99.90;;;;;;5051332;28;20041;-67
2022/10/01 10:25:59;;;;;;;4.65;3.08;;;11.30;99.90;;;;;;5051725;28;20087;-66
2022/10/01 10:28:37;;;;;;;5.85;3.30;;;11.40;99.90;;;;;;5049077;28;20126;-67
2022/10/01 10:31:19;;;;;;;4.13;3.08;;;11.40;99.90;;;;;;5048986;28;20049;-67
2022/10/01 10:34:18;;;;;;;4.13;3.03;;;11.30;99.90;;;;;;5049523;28;20065;-66
2022/10/01 10:36:45;;;;;;;5.47;3.05;;;11.40;99.90;;;;;;5045098;28;20041;-66
2022/10/01 10:39:22;;;;;;;5.28;3.45;;;11.40;99.90;;;;;;5051736;28;20472;-67
2022/10/01 10:41:51;;;;;;;8.43;3.53;;;11.50;99.90;;;;;;5050526;28;20047;-66
2022/10/01 10:44:20;;;;;;;5.07;3.53;;;11.40;99.90;;;;;;5052401;28;20036;-67
2022/10/01 10:46:47;;;;;;;3.88;3.47;;;11.30;99.90;;;;;;5053488;28;20052;-68
2022/10/01 10:49:29;;;;;;;7.03;3.60;;;11.10;99.90;;;;;;5052913;28;20033;-66
2022/10/01 10:51:57;;;;;;;5.97;4.05;;;11.20;99.90;;;;;;5043863;28;20090;-66
2022/10/01 10:54:30;;;;;;;6.35;3.70;;;11.30;99.90;;;;;;5053499;28;20032;-66
2022/10/01 10:57:02;;;;;;;6.03;3.17;;;11.40;99.90;;;;;;5054152;28;20492;-66
2022/10/01 10:59:30;;;;;;;5.85;4.00;;;11.30;99.90;;;;;;5054006;28;20106;-66
2022/10/01 11:01:57;;;;;;;7.10;4.28;;;11.30;99.90;;;;;;5054372;28;20069;-67
2022/10/01 11:04:43;;;;;;;5.05;3.95;;;11.30;99.90;;;;;;5053148;28;20033;-67
2022/10/01 11:07:12;;;;;;;6.97;4.05;;;11.20;99.90;;;;;;5051195;28;20041;-66
2022/10/01 11:09:51;;;;;;;9.20;4.07;;;11.20;99.90;;;;;;5050688;28;20041;-67
2022/10/01 11:12:49;;;;;;;7.05;3.80;;;11.20;99.90;;;;;;5054311;28;20047;-67
2022/10/01 11:15:47;;;;;;;5.65;3.47;;;11.30;99.90;;;;;;5019997;28;20029;-66
2022/10/01 11:18:43;;;;;;;5.13;3.50;;;11.20;99.90;;;;;;5051962;28;20128;-66
2022/10/01 11:21:30;;;;;;;4.88;3.70;;;11.20;99.90;;;;;;5053610;28;20049;-66
2022/10/01 11:24:23;;;;;;;6.43;3.42;;;11.30;99.90;;;;;;5053860;28;20539;-66
2022/10/01 11:27:09;;;;;;;6.20;3.60;;;11.30;99.90;;;;;;5053403;28;20090;-67
2022/10/01 11:29:52;;;;;;;8.90;4.15;;;11.20;99.90;;;;;;5052648;28;20116;-67
2022/10/01 11:32:30;;;;;;;4.82;3.22;;;11.30;99.90;;;;;;5052761;28;20123;-67
2022/10/01 11:35:22;;;;;;;5.53;3.75;;;11.20;99.90;;;;;;5053285;28;20408;-67
2022/10/01 11:38:17;;;;;;;4.65;3.35;;;11.20;99.90;;;;;;5053311;28;20609;-66
2022/10/01 11:40:47;;;;;;;7.22;4.05;;;11.70;99.90;;;;;;5047485;28;20047;-67
2022/10/01 11:43:56;;;;;;;4.70;3.75;;;11.50;99.90;;;;;;5053509;28;20060;-65
2022/10/01 11:46:41;;;;;;;4.32;3.67;;;11.50;99.90;;;;;;5031553;28;20045;-65
2022/10/01 11:49:26;;;;;;;4.70;3.47;;;11.40;99.90;;;;;;5031675;28;20033;-66
2022/10/01 11:52:26;;;;;;;4.07;3.65;;;11.20;99.90;;;;;;5031723;28;20043;-66
2022/10/01 12:01:10;;;;;;;5.47;3.63;;;11.00;99.90;;;;;;5033501;28;20036;-74
2022/10/01 12:04:01;;;;;;;5.10;4.00;;;11.10;99.90;;;;;;5031582;28;20038;-75
2022/10/01 12:06:52;;;;;;;24.48;9.95;;;11.10;99.90;;;;;;5031796;28;20036;-75
2022/10/01 12:09:34;;;;;;;10.80;6.50;;;11.10;99.90;;;;;;5029723;28;20034;-75
2022/10/01 12:12:21;;;;;;;20.88;9.23;;;11.10;99.90;;;;;;5031622;28;20046;-76
2022/10/01 12:15:14;;;;;;;11.00;5.85;;;11.10;99.90;;;;;;5031973;28;20574;-75
2022/10/01 12:17:54;;;;;;;26.25;10.63;;;11.10;99.90;;;;;;5031340;28;20041;-75
2022/10/01 12:20:25;;;;;;;10.32;6.03;;;11.00;99.90;;;;;;5049640;28;20067;-76
2022/10/01 12:22:52;;;;;;;;;;;10.90;99.90;;;;;;5068208;28;20037;-76
2022/10/01 12:25:23;;;;;;;10.77;5.13;;;11.00;99.90;;;;;;5051044;28;19909;-75
2022/10/01 12:27:53;;;;;;;11.48;6.68;;;11.00;99.90;;;;;;5051486;28;20119;-75
2022/10/01 12:30:21;;;;;;;8.25;4.95;;;11.00;99.90;;;;;;5068079;28;20040;-75
2022/10/01 12:33:05;;;;;;;7.60;4.72;;;10.90;99.90;;;;;;5053132;28;20400;-75
2022/10/01 12:35:46;;;;;;;13.00;6.60;;;11.00;99.90;;;;;;5068021;28;20075;-75
2022/10/01 12:38:54;;;;;;;7.20;4.43;;;11.10;99.90;;;;;;5050976;28;20041;-75
2022/10/01 12:41:39;;;;;;;6.97;4.50;;;11.10;99.90;;;;;;5054419;28;20044;-75
2022/10/01 12:44:22;;;;;;;7.00;4.57;;;11.20;99.90;;;;;;5053953;28;20464;-75
2022/10/01 12:47:06;;;;;;;9.27;5.65;;;11.20;99.90;;;;;;5054792;28;20037;-76
2022/10/01 12:49:55;;;;;;;8.80;4.75;;;11.20;99.90;;;;;;5054868;28;20123;-76
2022/10/01 12:52:32;;;;;;;8.10;5.20;;;11.10;99.90;;;;;;5053925;28;20356;-77
2022/10/01 12:55:05;;;;;;;7.30;4.53;;;11.10;99.90;;;;;;5056469;28;20037;-76
2022/10/01 12:57:51;;;;;;;6.18;4.20;;;11.10;99.90;;;;;;5055240;28;20045;-75
2022/10/01 13:00:20;;;;;;;10.13;5.20;;;11.10;99.90;;;;;;5053835;28;20045;-75
2022/10/01 13:03:11;;;;;;;8.13;5.15;;;11.10;99.90;;;;;;5054245;28;20033;-76
2022/10/01 13:05:51;;;;;;;6.90;3.85;;;11.00;99.90;;;;;;5054278;28;20072;-74
2022/10/01 13:08:16;;;;;;;14.07;7.88;;;11.00;99.90;;;;;;5054294;28;20119;-75
2022/10/01 13:11:19;;;;;;;8.57;4.38;;;11.10;99.90;;;;;;5054200;28;20623;-74
2022/10/01 13:13:50;;;;;;;8.48;5.18;;;11.00;99.90;;;;;;5052361;28;20125;-75
2022/10/01 13:16:43;;;;;;;6.72;4.18;;;11.20;99.90;;;;;;5054735;28;20049;-75
2022/10/01 13:19:39;;;;;;;11.20;5.32;;;11.20;99.90;;;;;;5053572;28;20132;-76
2022/10/01 13:22:10;;;;;;;10.65;6.30;;;11.20;99.90;;;;;;5052184;28;20087;-76
2022/10/01 13:24:45;;;;;;;11.85;6.63;;;11.30;99.90;;;;;;5052322;28;20041;-76